KSTL/STL METAR and TAF weather

Enter ICAO airport designator
Station Type Date Time Source
KSTL METAR 2020/07/06 19:51 UTC NOAA

KSTL 061951Z 32008KT 10SM SCT060 SCT080 BKN100 BKN250 32/22 A2998 RMK AO2 SLP139 TCU DSNT N T03220217


Station Type Date Time Source
KSTL Decoded METAR 2020/07/06 19:51 UTC NOAA

LAMBERT-ST LOUIS INTERNATIONAL AIRPORT , MO, United States (KSTL) 38-45N 90-22W 171M
Jul 06, 2020 - 03:51 PM EDT / 2020.07.06 1951 UTC
Wind: from the NW (320 degrees) at 9 MPH (8 KT):0
Visibility: 10 mile(s):0
Sky conditions: mostly cloudy
Weather: Towering cumulus clouds observed
Temperature: 90.0 F (32.2 C)
Heat index: 96.1 F (35.6 C):1
Dew Point: 71.1 F (21.7 C)
Relative Humidity: 53%
Pressure (altimeter): 29.98 in. Hg (1015 hPa)
ob: KSTL 061951Z 32008KT 10SM SCT060 SCT080 BKN100 BKN250 32/22 A2998 RMK AO2 SLP139 TCU DSNT N T03220217
cycle: 20

Station Type Date Time Source
KSTL TAF 2020/07/06 20:42 UTC NOAA

TAF
AMD KSTL 061939Z 0620/0724 VRB05KT P6SM BKN060 BKN250
FM070000 00000KT P6SM FEW250

Example: see airport list